Time;durP1;ratioP1;P1;durP2;ratioP2;P2;SDS_P1;SDS_P2;PMS_P1;PMS_P2;Temp;Humidity;BMP_temperature;BMP_pressure;BME280_temperature;BME280_humidity;BME280_pressure;Samples;Min_cycle;Max_cycle;Signal;HPM_P1;HPM_P2
2023/01/18 00:00:36;;;;;;;;;7.00;4.75;;;;;1.51;71.42;99045.69;5020811;28;12262;-66
2023/01/18 00:03:04;;;;;;;;;5.00;4.00;;;;;1.51;71.30;99051.81;5022353;28;11588;-68
2023/01/18 00:05:30;;;;;;;;;5.50;5.50;;;;;1.53;71.41;99051.63;5022265;28;12242;-66
2023/01/18 00:07:56;;;;;;;;;5.50;4.00;;;;;1.54;71.16;99047.94;5021721;28;11588;-67
2023/01/18 00:10:23;;;;;;;;;6.50;6.25;;;;;1.54;71.29;99040.00;5019320;28;11620;-66
2023/01/18 00:12:49;;;;;;;;;5.50;5.50;;;;;1.53;71.32;99043.66;5018751;28;11582;-65
2023/01/18 00:15:16;;;;;;;;;9.00;9.00;;;;;1.50;71.23;99050.16;5030683;28;11533;-66
2023/01/18 00:17:51;;;;;;;;;5.00;5.00;;;;;1.49;71.67;99048.50;5019839;28;11538;-66
2023/01/18 00:20:24;;;;;;;;;4.00;4.00;;;;;1.48;71.43;99050.31;5021283;28;11489;-65
2023/01/18 00:22:51;;;;;;;;;4.50;4.00;;;;;1.49;71.72;99045.84;5021626;28;11538;-66
2023/01/18 00:25:20;;;;;;;;;3.00;3.00;;;;;1.49;71.60;99044.00;5020751;28;11533;-66
2023/01/18 00:27:49;;;;;;;;;7.50;5.00;;;;;1.51;71.72;99046.50;5019437;28;11514;-67
2023/01/18 00:30:17;;;;;;;;;6.00;6.00;;;;;1.51;71.56;99046.50;5019074;28;11572;-65
2023/01/18 00:32:44;;;;;;;;;6.25;3.75;;;;;1.51;71.63;99043.84;5020556;28;11498;-68
2023/01/18 00:35:11;;;;;;;;;5.00;4.00;;;;;1.48;71.34;99041.56;5021249;28;11510;-66
2023/01/18 00:37:38;;;;;;;;;6.50;4.75;;;;;1.44;71.50;99046.38;5021069;28;11510;-68
2023/01/18 00:40:06;;;;;;;;;4.00;4.00;;;;;1.41;71.53;99041.44;5021176;28;11566;-68
2023/01/18 00:45:18;;;;;;;;;7.00;7.00;;;;;1.38;71.68;99033.88;5020843;28;11607;-66
2023/01/18 00:47:44;;;;;;;;;7.25;4.00;;;;;1.39;71.78;99038.16;5019369;28;11544;-66
2023/01/18 00:50:11;;;;;;;;;6.25;3.25;;;;;1.40;71.82;99033.66;5022371;28;11511;-66
2023/01/18 00:52:37;;;;;;;;;6.25;4.00;;;;;1.41;71.76;99032.66;5020762;28;11500;-67
2023/01/18 00:55:04;;;;;;;;;5.00;5.00;;;;;1.43;71.57;99038.63;5018458;28;11507;-67
2023/01/18 00:57:31;;;;;;;;;3.00;3.00;;;;;1.44;71.63;99040.25;5024814;28;11572;-66
2023/01/18 00:59:57;;;;;;;;;2.50;2.50;;;;;1.45;71.84;99037.41;5035403;28;11683;-66
2023/01/18 01:02:23;;;;;;;;;1.00;1.00;;;;;1.47;71.62;99037.25;5020814;28;11506;-68
2023/01/18 01:07:35;;;;;;;;;4.50;2.00;;;;;1.48;71.48;99038.91;5021128;28;11516;-68
2023/01/18 01:10:07;;;;;;;;;4.00;3.75;;;;;1.46;71.44;99041.75;5021403;28;11642;-68
2023/01/18 01:26:25;;;;;;;;;3.00;3.00;;;;;1.46;71.37;99051.53;5017291;28;11686;-67
2023/01/18 01:28:52;;;;;;;;;5.50;3.00;;;;;1.44;71.04;99051.69;5018355;28;11578;-67
2023/01/18 01:31:19;;;;;;;;;1.00;1.00;;;;;1.44;71.30;99043.72;5022987;28;11504;-68
2023/01/18 01:33:49;;;;;;;;;2.25;1.00;;;;;1.44;71.40;99049.03;5019540;28;11502;-68
2023/01/18 01:36:24;;;;;;;;;3.75;0.50;;;;;1.47;71.29;99058.47;5023456;28;11494;-67
2023/01/18 01:38:52;;;;;;;;;1.50;1.50;;;;;1.47;71.56;99056.63;5019948;28;11629;-67
2023/01/18 01:41:26;;;;;;;;;3.00;3.00;;;;;1.46;71.58;99060.31;5017408;28;11548;-66
2023/01/18 01:43:55;;;;;;;;;1.00;1.00;;;;;1.45;71.50;99058.63;5019476;28;11529;-68
2023/01/18 01:46:45;;;;;;;;;1.00;1.00;;;;;1.42;70.81;99064.31;5020487;28;11497;-67
2023/01/18 01:49:20;;;;;;;;;3.75;2.25;;;;;1.39;71.09;99064.66;5022868;28;11560;-67
2023/01/18 01:51:51;;;;;;;;;5.50;4.00;;;;;1.36;71.50;99059.72;5022902;28;11618;-68
2023/01/18 01:54:25;;;;;;;;;4.00;2.50;;;;;1.33;71.63;99067.19;5023094;28;11523;-65
2023/01/18 01:56:57;;;;;;;;;3.75;3.00;;;;;1.33;71.36;99073.31;5023299;28;11542;-68
2023/01/18 01:59:23;;;;;;;;;3.25;1.50;;;;;1.31;71.25;99072.69;5023636;28;12984;-66
2023/01/18 02:01:50;;;;;;;;;2.75;2.75;;;;;1.29;71.55;99069.38;5025637;28;11519;-67
2023/01/18 02:04:17;;;;;;;;;5.00;2.00;;;;;1.27;71.23;99073.22;5024000;28;11555;-65
2023/01/18 02:06:43;;;;;;;;;2.50;2.50;;;;;1.26;71.51;99076.84;5023759;28;11509;-66
2023/01/18 02:09:13;;;;;;;;;4.25;3.50;;;;;1.26;71.48;99079.50;5020224;28;12257;-66
2023/01/18 02:11:41;;;;;;;;;3.00;3.00;;;;;1.23;71.44;99086.81;5021546;28;11657;-65
2023/01/18 02:14:14;;;;;;;;;3.00;3.00;;;;;1.23;71.57;99078.88;5024037;28;11512;-67
2023/01/18 02:16:59;;;;;;;;;3.00;3.00;;;;;1.24;71.24;99082.34;5023789;28;12261;-65
2023/01/18 02:19:55;;;;;;;;;0.75;0.75;;;;;1.24;71.35;99080.50;5023308;28;11491;-67
2023/01/18 02:22:46;;;;;;;;;1.00;1.00;;;;;1.26;71.29;99082.16;5023142;28;11558;-66
2023/01/18 02:25:19;;;;;;;;;3.75;1.00;;;;;1.23;71.48;99084.16;5019575;28;11569;-66
2023/01/18 02:27:53;;;;;;;;;4.75;3.00;;;;;1.23;71.15;99086.81;5023894;28;11546;-66
2023/01/18 02:30:20;;;;;;;;;2.00;2.00;;;;;1.22;71.39;99093.13;5024140;28;11486;-66
2023/01/18 02:33:00;;;;;;;;;4.00;3.00;;;;;1.20;71.46;99084.53;5026311;28;11632;-66
2023/01/18 02:35:51;;;;;;;;;1.00;1.00;;;;;1.19;71.40;99087.34;5023300;28;11525;-66
2023/01/18 02:38:30;;;;;;;;;0.00;0.00;;;;;1.17;71.39;99094.66;5019098;28;11671;-67
2023/01/18 02:41:06;;;;;;;;;1.00;1.00;;;;;1.15;71.08;99094.00;5019568;28;11572;-67
2023/01/18 02:46:39;;;;;;;;;0.75;0.75;;;;;1.13;71.34;99101.28;5024477;28;11579;-66
2023/01/18 02:49:08;;;;;;;;;3.00;3.00;;;;;1.12;71.72;99113.72;5022604;28;11510;-67
2023/01/18 02:51:35;;;;;;;;;2.00;2.00;;;;;1.12;71.58;99108.44;5022912;28;11632;-66
2023/01/18 02:54:07;;;;;;;;;1.00;1.00;;;;;1.13;71.56;99103.94;5022885;28;11620;-66
2023/01/18 02:56:39;;;;;;;;;3.25;3.00;;;;;1.10;71.61;99113.09;5019336;28;11510;-67
2023/01/18 02:59:20;;;;;;;;;3.50;1.00;;;;;1.11;71.47;99112.09;5022868;28;11541;-67
2023/01/18 03:01:51;;;;;;;;;0.25;0.25;;;;;1.11;71.73;99112.09;5020663;28;11514;-65
2023/01/18 03:04:27;;;;;;;;;3.00;3.00;;;;;1.11;71.42;99121.88;5022192;28;11521;-67
2023/01/18 03:07:20;;;;;;;;;3.75;3.00;;;;;1.09;71.89;99111.41;5024927;28;11523;-67
2023/01/18 03:09:47;;;;;;;;;5.00;5.00;;;;;1.06;71.56;99124.22;5021514;28;11531;-65
2023/01/18 03:12:44;;;;;;;;;2.00;1.50;;;;;1.05;71.77;99115.41;5023332;28;11528;-67
2023/01/18 03:15:37;;;;;;;;;5.25;3.00;;;;;1.02;71.68;99120.28;5023379;28;11507;-65
2023/01/18 03:18:11;;;;;;;;;3.50;3.00;;;;;0.99;71.55;99119.59;5022310;28;12314;-65
2023/01/18 03:20:45;;;;;;;;;3.00;3.00;;;;;0.98;72.06;99119.78;5025368;28;11502;-65
2023/01/18 03:23:39;;;;;;;;;6.00;6.00;;;;;0.96;72.04;99119.94;5021136;28;11518;-67
2023/01/18 03:26:09;;;;;;;;;3.75;3.75;;;;;0.92;71.76;99118.66;5016965;28;12369;-67
2023/01/18 03:34:32;;;;;;;;;9.50;6.00;;;;;0.86;72.23;99122.00;5025113;28;11600;-66
2023/01/18 03:37:03;;;;;;;;;3.25;3.25;;;;;0.82;72.02;99114.59;5025258;28;11560;-67
2023/01/18 03:39:37;;;;;;;;;3.00;3.00;;;;;0.83;72.24;99121.53;5023940;28;11540;-68
2023/01/18 03:42:19;;;;;;;;;4.00;4.00;;;;;0.81;71.94;99115.56;5018156;28;11542;-67
2023/01/18 03:44:51;;;;;;;;;4.25;4.25;;;;;0.79;72.29;99121.06;5022884;28;12213;-68
2023/01/18 03:47:18;;;;;;;;;3.25;2.50;;;;;0.76;72.46;99118.75;5020552;28;12303;-67
2023/01/18 03:49:45;;;;;;;;;4.00;4.00;;;;;0.74;72.17;99118.94;5037998;28;11516;-68
2023/01/18 03:52:30;;;;;;;;;4.00;3.50;;;;;0.76;72.49;99126.69;5021509;28;11682;-65
2023/01/18 03:55:08;;;;;;;;;6.00;3.00;;;;;0.77;72.69;99127.50;5020190;28;11642;-66
2023/01/18 03:57:45;;;;;;;;;5.25;3.50;;;;;0.78;72.59;99131.81;5016406;28;11539;-66
2023/01/18 04:00:13;;;;;;;;;4.50;4.00;;;;;0.79;72.60;99134.28;5021407;28;11657;-67
2023/01/18 04:02:43;;;;;;;;;4.50;4.50;;;;;0.84;72.20;99137.25;5025352;28;11503;-65
2023/01/18 04:05:10;;;;;;;;;3.00;3.00;;;;;0.86;72.68;99135.25;5020474;28;12371;-65
2023/01/18 04:07:36;;;;;;;;;6.50;4.00;;;;;0.85;72.61;99136.25;5033808;28;11549;-65
2023/01/18 04:10:03;;;;;;;;;2.50;2.50;;;;;0.86;72.38;99132.59;5019788;28;11527;-67
2023/01/18 04:12:30;;;;;;;;;4.50;4.50;;;;;0.89;72.75;99132.28;5021509;28;11540;-66
2023/01/18 04:14:57;;;;;;;;;3.75;3.50;;;;;0.90;72.67;99135.75;5021390;28;11589;-68
2023/01/18 04:17:23;;;;;;;;;3.75;3.75;;;;;0.92;72.19;99128.44;5022854;28;11565;-67
2023/01/18 04:19:50;;;;;;;;;5.00;4.00;;;;;0.92;72.48;99128.44;5021964;28;11599;-68
2023/01/18 04:22:16;;;;;;;;;6.25;6.25;;;;;0.91;72.07;99132.09;5021549;28;11523;-68
2023/01/18 04:24:42;;;;;;;;;4.50;3.00;;;;;0.88;71.91;99127.13;5020548;28;12372;-66
2023/01/18 04:27:09;;;;;;;;;3.00;3.00;;;;;0.87;72.09;99136.91;5019299;28;11511;-68
2023/01/18 04:29:37;;;;;;;;;4.00;4.00;;;;;0.82;71.65;99135.78;5021581;28;11538;-66
2023/01/18 04:32:04;;;;;;;;;4.00;3.00;;;;;0.82;72.23;99131.31;5023057;28;11568;-67
2023/01/18 04:34:31;;;;;;;;;7.25;4.50;;;;;0.80;72.04;99122.69;5017666;28;12349;-66
2023/01/18 04:36:58;;;;;;;;;4.00;3.00;;;;;0.81;72.24;99128.81;5022816;28;11510;-67
2023/01/18 04:39:24;;;;;;;;;3.00;3.00;;;;;0.80;72.00;99137.75;5018803;28;11611;-67
2023/01/18 04:41:51;;;;;;;;;5.50;5.50;;;;;0.79;71.92;99144.88;5018648;28;11527;-66
2023/01/18 04:44:17;;;;;;;;;6.75;5.00;;;;;0.73;72.07;99149.06;5016008;28;11596;-66
2023/01/18 04:46:44;;;;;;;;;6.00;6.00;;;;;0.70;72.40;99143.28;5023964;28;11535;-67
2023/01/18 04:49:14;;;;;;;;;7.00;5.50;;;;;0.73;72.44;99145.59;5023560;28;11591;-67
2023/01/18 04:51:42;;;;;;;;;5.00;5.00;;;;;0.75;71.95;99151.53;5021452;28;11699;-66
2023/01/18 04:54:09;;;;;;;;;3.75;3.00;;;;;0.76;72.19;99147.88;5020202;28;11521;-66
2023/01/18 04:56:36;;;;;;;;;5.00;5.00;;;;;0.80;71.93;99151.81;5020144;28;11529;-67
2023/01/18 04:59:02;;;;;;;;;3.50;3.50;;;;;0.80;72.28;99158.94;5018736;28;11658;-66
2023/01/18 05:01:29;;;;;;;;;6.00;5.50;;;;;0.81;72.20;99160.59;5019770;28;11523;-67
2023/01/18 05:03:55;;;;;;;;;6.00;3.25;;;;;0.81;71.97;99160.59;5021583;28;12265;-67
2023/01/18 05:06:23;;;;;;;;;8.00;5.00;;;;;0.80;72.04;99149.19;5019399;28;11621;-66
2023/01/18 05:08:51;;;;;;;;;2.50;2.50;;;;;0.80;72.03;99154.47;5022697;28;11516;-66
2023/01/18 05:11:19;;;;;;;;;3.00;3.00;;;;;0.79;72.08;99158.13;5020730;28;11555;-69
2023/01/18 05:13:46;;;;;;;;;4.00;4.00;;;;;0.81;72.46;99157.94;5021410;28;12394;-69
2023/01/18 05:16:16;;;;;;;;;3.00;3.00;;;;;0.80;72.28;99157.13;5019313;28;12265;-67
2023/01/18 05:18:43;;;;;;;;;4.50;4.50;;;;;0.79;72.04;99165.25;5017629;28;11618;-69
2023/01/18 05:21:10;;;;;;;;;8.00;3.00;;;;;0.78;72.36;99169.72;5020377;28;11531;-68
2023/01/18 05:23:40;;;;;;;;;2.00;2.00;;;;;0.73;72.22;99169.44;5022108;28;11508;-67
2023/01/18 05:26:19;;;;;;;;;7.00;6.00;;;;;0.71;72.46;99174.88;5023256;28;11493;-66
2023/01/18 05:28:46;;;;;;;;;3.00;2.50;;;;;0.71;72.29;99174.06;5006634;28;11545;-66
2023/01/18 05:31:14;;;;;;;;;3.00;2.00;;;;;0.71;72.30;99176.69;5026447;28;11512;-68
2023/01/18 05:33:40;;;;;;;;;6.00;1.50;;;;;0.73;72.82;99180.03;5026343;28;11515;-69
2023/01/18 05:36:07;;;;;;;;;6.00;5.00;;;;;0.74;72.46;99187.78;5021435;28;11538;-68
2023/01/18 05:38:34;;;;;;;;;6.00;4.00;;;;;0.74;72.63;99192.25;5024470;28;11508;-67
2023/01/18 05:41:00;;;;;;;;;6.50;4.00;;;;;0.68;72.53;99184.97;5026855;28;11654;-69
2023/01/18 05:43:28;;;;;;;;;8.50;8.00;;;;;0.70;72.73;99188.31;5023249;28;11578;-68
2023/01/18 05:45:55;;;;;;;;;4.00;4.00;;;;;0.71;72.56;99185.47;5036688;28;11668;-68
2023/01/18 05:48:22;;;;;;;;;6.75;6.00;;;;;0.73;72.83;99190.63;5024989;28;11516;-67
2023/01/18 05:50:48;;;;;;;;;7.00;6.00;;;;;0.75;72.93;99188.59;5022692;28;11519;-68
2023/01/18 05:53:17;;;;;;;;;7.00;4.00;;;;;0.76;73.05;99200.03;5025640;28;11542;-67
2023/01/18 05:55:53;;;;;;;;;5.50;5.50;;;;;0.78;72.94;99193.56;5022165;28;11657;-66
2023/01/18 05:58:19;;;;;;;;;4.00;4.00;;;;;0.80;72.87;99201.31;5023498;28;11544;-67
2023/01/18 06:00:46;;;;;;;;;4.00;4.00;;;;;0.82;73.16;99200.16;5023804;28;11560;-66
2023/01/18 06:03:12;;;;;;;;;8.50;6.25;;;;;0.84;73.31;99202.63;5023501;28;11542;-68
2023/01/18 06:05:39;;;;;;;;;6.50;4.50;;;;;0.85;73.17;99202.47;5022876;28;11657;-68
2023/01/18 06:08:05;;;;;;;;;4.00;4.00;;;;;0.88;73.03;99204.75;5029455;28;12375;-67
2023/01/18 06:10:31;;;;;;;;;3.50;3.50;;;;;0.90;72.70;99205.44;5021987;28;11546;-69
2023/01/18 06:12:58;;;;;;;;;4.00;4.00;;;;;0.90;73.35;99204.63;5022522;28;11511;-66
2023/01/18 06:15:25;;;;;;;;;6.25;5.00;;;;;0.90;73.00;99217.84;5024128;28;11609;-67
2023/01/18 06:17:51;;;;;;;;;6.00;6.00;;;;;0.89;72.68;99211.72;5023416;28;11546;-68
2023/01/18 06:20:18;;;;;;;;;6.75;5.00;;;;;0.89;72.78;99205.59;5021702;28;11482;-68
2023/01/18 06:22:45;;;;;;;;;7.50;7.50;;;;;0.86;72.99;99206.78;5022582;28;11541;-65
2023/01/18 06:25:11;;;;;;;;;8.00;5.00;;;;;0.90;72.58;99208.09;5019914;28;11537;-68
2023/01/18 06:27:38;;;;;;;;;9.00;6.00;;;;;0.87;73.30;99203.13;5027391;28;11563;-69
2023/01/18 06:30:06;;;;;;;;;8.75;6.50;;;;;0.92;72.91;99210.53;5025346;28;11501;-66
2023/01/18 06:32:33;;;;;;;;;7.00;7.00;;;;;0.93;73.06;99212.19;5024942;28;11518;-68
2023/01/18 06:34:59;;;;;;;;;6.00;6.00;;;;;0.92;72.66;99214.00;5024478;28;11552;-67
2023/01/18 06:37:26;;;;;;;;;6.75;6.00;;;;;0.92;73.12;99210.53;5029086;28;11516;-68
2023/01/18 06:39:52;;;;;;;;;9.50;7.00;;;;;0.91;73.42;99214.19;5025168;28;11617;-68
2023/01/18 06:42:18;;;;;;;;;4.25;3.75;;;;;0.92;72.57;99219.31;5032968;28;12231;-69
2023/01/18 06:44:45;;;;;;;;;11.25;9.00;;;;;0.92;73.37;99221.97;5023760;28;12322;-68
2023/01/18 06:47:14;;;;;;;;;6.50;6.50;;;;;0.93;73.13;99223.63;5025754;28;11533;-68
2023/01/18 06:49:40;;;;;;;;;3.75;3.50;;;;;0.96;73.28;99223.28;5020818;28;11509;-68
2023/01/18 06:52:07;;;;;;;;;13.00;7.00;;;;;1.01;73.19;99232.53;5019141;28;11625;-68
2023/01/18 06:54:34;;;;;;;;;7.50;6.00;;;;;1.00;73.13;99234.34;5031192;28;11614;-68
2023/01/18 06:57:01;;;;;;;;;5.25;5.25;;;;;1.02;73.46;99231.56;5032396;28;11507;-68
2023/01/18 06:59:27;;;;;;;;;3.75;3.75;;;;;1.03;72.96;99239.31;5032126;28;11640;-67
2023/01/18 07:01:53;;;;;;;;;6.00;6.00;;;;;1.04;72.97;99243.59;5032143;28;11519;-69
2023/01/18 07:04:20;;;;;;;;;6.00;6.00;;;;;1.04;72.86;99243.59;5028246;28;11611;-68
2023/01/18 07:06:47;;;;;;;;;4.00;4.00;;;;;1.06;73.11;99256.72;5020135;28;11537;-68
2023/01/18 07:09:13;;;;;;;;;3.00;3.00;;;;;1.06;73.20;99257.53;5030408;28;11508;-67
2023/01/18 07:11:42;;;;;;;;;3.75;3.75;;;;;1.06;73.20;99256.72;5020767;28;11525;-67
2023/01/18 07:14:10;;;;;;;;;6.50;6.00;;;;;1.06;73.56;99264.66;5031468;28;11550;-69
2023/01/18 07:16:37;;;;;;;;;9.50;7.00;;;;;1.11;73.30;99275.56;5032076;28;11506;-68
2023/01/18 07:19:04;;;;;;;;;6.25;6.00;;;;;1.12;73.49;99270.06;5047275;28;12229;-69
2023/01/18 07:21:31;;;;;;;;;9.00;9.00;;;;;1.12;73.11;99274.56;5016599;28;11578;-67
2023/01/18 07:23:58;;;;;;;;;6.00;6.00;;;;;1.07;73.45;99277.72;5016327;28;11498;-70
2023/01/18 07:26:25;;;;;;;;;6.25;6.25;;;;;1.08;73.21;99282.00;5032020;28;11633;-67
2023/01/18 07:28:53;;;;;;;;;4.00;4.00;;;;;1.07;73.01;99282.19;5027162;28;11505;-68
2023/01/18 07:31:22;;;;;;;;;8.00;4.00;;;;;1.05;73.16;99292.13;5023825;28;11557;-66
2023/01/18 07:33:49;;;;;;;;;6.50;5.50;;;;;1.05;73.36;99289.47;5022070;28;11554;-68
2023/01/18 07:36:15;;;;;;;;;3.50;3.50;;;;;1.07;73.75;99287.50;5026294;28;11512;-68
2023/01/18 07:38:42;;;;;;;;;4.50;4.50;;;;;1.10;73.86;99293.28;5014646;28;11527;-68
2023/01/18 07:41:13;;;;;;;;;3.50;3.50;;;;;1.13;73.91;99295.56;5031660;28;11545;-67
2023/01/18 07:43:40;;;;;;;;;5.50;5.50;;;;;1.14;73.80;99297.25;5025295;28;11497;-67
2023/01/18 07:46:11;;;;;;;;;4.00;4.00;;;;;1.15;73.86;99306.03;5014535;28;11529;-68
2023/01/18 07:48:37;;;;;;;;;6.25;4.50;;;;;1.18;73.53;99303.03;5026888;28;11509;-66
2023/01/18 07:51:07;;;;;;;;;3.50;3.50;;;;;1.18;73.59;99305.69;5016853;28;11499;-66
2023/01/18 07:53:35;;;;;;;;;7.00;6.00;;;;;1.20;73.90;99307.16;5028510;28;11653;-66
2023/01/18 07:56:04;;;;;;;;;7.25;6.75;;;;;1.22;73.61;99317.59;5020217;28;11524;-66
2023/01/18 07:58:30;;;;;;;;;6.00;4.00;;;;;1.23;73.78;99313.94;5021391;28;11504;-67
2023/01/18 08:01:08;;;;;;;;;6.00;3.00;;;;;1.21;73.43;99311.44;5016025;28;11652;-65
2023/01/18 08:03:35;;;;;;;;;6.00;4.00;;;;;1.26;73.87;99320.69;5020039;28;11513;-65
2023/01/18 08:06:04;;;;;;;;;7.50;6.25;;;;;1.20;73.38;99325.69;5026719;28;11532;-67
2023/01/18 08:08:31;;;;;;;;;3.50;3.50;;;;;1.19;73.40;99318.75;5011869;28;11560;-66
2023/01/18 08:10:59;;;;;;;;;6.00;4.00;;;;;1.19;74.03;99321.41;5021341;28;11540;-67
2023/01/18 08:13:27;;;;;;;;;8.00;4.00;;;;;1.20;74.21;99327.53;5008880;28;11578;-66
2023/01/18 08:15:54;;;;;;;;;5.00;5.00;;;;;1.22;74.07;99336.97;5029963;28;11639;-66
2023/01/18 08:18:22;;;;;;;;;6.25;6.25;;;;;1.19;73.92;99332.00;5030900;28;11651;-66
2023/01/18 08:20:49;;;;;;;;;7.50;4.00;;;;;1.22;73.73;99336.97;5029187;28;11693;-66
2023/01/18 08:23:16;;;;;;;;;9.25;6.25;;;;;1.20;74.01;99338.13;5022891;28;11527;-66
2023/01/18 08:25:43;;;;;;;;;8.50;6.25;;;;;1.22;74.35;99344.91;5024645;28;11556;-66
2023/01/18 08:28:10;;;;;;;;;12.75;9.00;;;;;1.20;74.08;99346.06;5015570;28;11519;-67
2023/01/18 08:30:40;;;;;;;;;4.00;4.00;;;;;1.19;74.44;99355.03;5021260;28;11515;-67
2023/01/18 08:33:06;;;;;;;;;4.00;4.00;;;;;1.19;74.29;99344.44;5025762;28;11514;-66
2023/01/18 08:35:39;;;;;;;;;8.25;5.75;;;;;1.21;74.62;99351.19;5029153;28;11562;-66
2023/01/18 08:38:05;;;;;;;;;4.00;4.00;;;;;1.17;74.44;99351.72;5030274;28;11629;-66
2023/01/18 08:40:31;;;;;;;;;8.50;8.50;;;;;1.15;74.66;99353.72;5026177;28;11503;-66
2023/01/18 08:43:00;;;;;;;;;7.00;7.00;;;;;1.17;74.99;99359.66;5039781;28;12340;-67
2023/01/18 08:45:27;;;;;;;;;6.00;4.50;;;;;1.22;75.18;99352.03;5026403;28;11639;-66
2023/01/18 08:47:57;;;;;;;;;7.50;6.75;;;;;1.39;76.38;99358.94;5029800;28;11521;-67
2023/01/18 08:50:24;;;;;;;;;8.00;7.00;;;;;1.34;75.63;99361.28;5024927;28;11525;-66
2023/01/18 08:52:51;;;;;;;;;8.00;5.00;;;;;1.28;75.33;99366.44;5028977;28;11529;-66
2023/01/18 08:55:18;;;;;;;;;6.50;6.50;;;;;1.28;75.72;99359.31;5023178;28;11531;-65
2023/01/18 08:57:45;;;;;;;;;11.25;6.00;;;;;1.27;75.65;99360.31;5026287;28;11685;-66
2023/01/18 09:00:12;;;;;;;;;12.00;6.00;;;;;1.30;75.58;99370.56;5029604;28;11613;-65
2023/01/18 09:02:38;;;;;;;;;10.00;9.00;;;;;1.32;75.69;99370.41;5024817;28;11566;-65
2023/01/18 09:05:05;;;;;;;;;9.25;6.50;;;;;1.38;75.64;99375.84;5020872;28;11600;-67
2023/01/18 09:07:32;;;;;;;;;6.50;6.50;;;;;1.44;75.78;99380.44;5014110;28;11536;-67
2023/01/18 09:09:58;;;;;;;;;9.25;7.50;;;;;1.54;75.44;99371.47;5028350;28;11515;-65
2023/01/18 09:12:25;;;;;;;;;10.75;9.00;;;;;1.58;75.53;99386.03;5028208;28;11532;-66
2023/01/18 09:14:51;;;;;;;;;6.00;5.50;;;;;1.64;75.12;99380.88;5028914;28;11692;-66
2023/01/18 09:17:20;;;;;;;;;6.25;6.25;;;;;1.73;75.14;99379.00;5022071;28;11642;-67
2023/01/18 09:19:46;;;;;;;;;7.00;4.75;;;;;1.80;74.83;99385.28;5025369;28;11545;-67
2023/01/18 09:22:12;;;;;;;;;5.75;5.75;;;;;1.93;74.85;99382.06;5025091;28;11520;-66
2023/01/18 09:24:40;;;;;;;;;14.50;12.50;;;;;1.94;74.35;99381.88;5026705;28;11498;-67
2023/01/18 09:27:06;;;;;;;;;4.00;4.00;;;;;1.97;74.11;99381.53;5026193;28;11527;-68
2023/01/18 09:29:33;;;;;;;;;7.75;7.25;;;;;2.08;74.73;99392.75;5016060;28;11547;-66
2023/01/18 09:31:59;;;;;;;;;6.75;6.75;;;;;2.20;73.92;99396.66;5028664;28;11599;-65
2023/01/18 09:34:26;;;;;;;;;10.00;10.00;;;;;2.16;74.31;99398.84;5028612;28;11517;-66
2023/01/18 09:36:52;;;;;;;;;9.50;7.75;;;;;2.21;74.07;99401.78;5030521;28;11622;-67
2023/01/18 09:39:20;;;;;;;;;8.50;7.75;;;;;2.26;73.65;99384.50;5024732;28;11522;-67
2023/01/18 09:41:53;;;;;;;;;10.75;7.75;;;;;2.17;73.64;99391.69;5013684;28;11608;-66
2023/01/18 09:44:39;;;;;;;;;6.00;4.25;;;;;2.18;73.28;99388.03;5025798;28;11509;-67
2023/01/18 09:47:16;;;;;;;;;10.75;10.00;;;;;2.11;73.46;99389.75;5029819;28;11648;-68
2023/01/18 09:49:51;;;;;;;;;7.00;6.00;;;;;2.10;73.63;99388.91;5029606;28;11624;-68
2023/01/18 09:52:34;;;;;;;;;13.75;10.50;;;;;2.15;73.75;99383.09;5026873;28;12408;-67
2023/01/18 09:55:26;;;;;;;;;5.25;4.25;;;;;2.27;74.18;99392.31;5017893;28;11529;-69
2023/01/18 09:58:11;;;;;;;;;8.50;8.50;;;;;2.20;73.96;99392.19;5010610;28;11549;-69
2023/01/18 10:00:46;;;;;;;;;9.00;7.50;;;;;2.28;74.08;99399.28;5037855;28;11591;-68
2023/01/18 10:03:31;;;;;;;;;8.00;6.50;;;;;2.34;74.15;99395.91;5022437;28;11583;-68
2023/01/18 10:06:09;;;;;;;;;9.50;9.50;;;;;2.40;74.00;99399.69;5010599;28;11649;-68
2023/01/18 10:08:48;;;;;;;;;9.00;9.00;;;;;2.44;73.62;99403.66;5012477;28;11588;-68
2023/01/18 10:11:28;;;;;;;;;8.50;8.25;;;;;2.47;74.12;99404.13;5045536;28;11533;-68
2023/01/18 10:14:04;;;;;;;;;10.50;10.00;;;;;2.60;73.89;99408.84;5026255;28;11560;-67
2023/01/18 10:16:36;;;;;;;;;10.25;10.25;;;;;2.68;73.60;99407.94;5020663;28;11636;-68
2023/01/18 10:19:14;;;;;;;;;7.25;7.00;;;;;2.76;73.07;99418.50;5023753;28;11593;-68
2023/01/18 10:21:59;;;;;;;;;7.75;7.50;;;;;2.83;73.47;99423.91;5027212;28;11482;-68
2023/01/18 10:24:39;;;;;;;;;10.00;10.00;;;;;2.89;73.25;99416.06;5019991;28;12364;-68
2023/01/18 10:27:34;;;;;;;;;9.00;8.00;;;;;2.96;72.62;99424.16;5020881;28;11662;-69
2023/01/18 10:30:19;;;;;;;;;13.75;7.75;;;;;3.12;72.43;99420.50;5023760;28;11527;-67
2023/01/18 10:32:52;;;;;;;;;11.00;8.50;;;;;3.17;72.47;99423.44;5027105;28;11477;-68
2023/01/18 10:35:40;;;;;;;;;7.75;7.75;;;;;3.19;72.42;99418.75;5046100;28;11733;-67
2023/01/18 10:38:11;;;;;;;;;10.75;7.25;;;;;3.29;72.01;99419.34;5029452;28;11472;-67
2023/01/18 10:40:39;;;;;;;;;8.25;8.25;;;;;3.33;71.80;99425.94;5027289;28;11541;-67
2023/01/18 10:43:11;;;;;;;;;3.00;3.00;;;;;3.37;71.67;99427.22;5014669;28;11615;-67
2023/01/18 10:45:37;;;;;;;;;7.50;7.50;;;;;3.40;71.83;99418.91;5018951;28;11480;-69
2023/01/18 10:48:16;;;;;;;;;12.25;10.00;;;;;3.45;71.94;99413.84;5020142;28;11441;-68
2023/01/18 10:50:51;;;;;;;;;8.75;7.00;;;;;3.51;71.75;99406.13;5021993;28;11669;-69
2023/01/18 10:53:35;;;;;;;;;9.00;9.00;;;;;3.49;71.72;99400.19;5031844;28;11580;-68
2023/01/18 10:56:02;;;;;;;;;6.00;6.00;;;;;3.44;71.37;99398.91;5024828;28;11471;-69
2023/01/18 10:58:32;;;;;;;;;8.50;8.00;;;;;3.45;72.07;99394.41;5024072;28;11455;-67
2023/01/18 11:01:00;;;;;;;;;11.50;8.00;;;;;3.49;71.64;99395.69;5025362;28;11505;-66
2023/01/18 11:03:31;;;;;;;;;5.00;3.75;;;;;3.49;71.77;99408.16;5020402;28;11632;-68
2023/01/18 11:06:05;;;;;;;;;9.25;5.50;;;;;3.50;71.80;99399.16;5022913;28;11619;-69
2023/01/18 11:08:34;;;;;;;;;7.00;7.00;;;;;3.53;71.69;99409.44;5026852;28;11474;-69
2023/01/18 11:11:11;;;;;;;;;6.00;6.00;;;;;3.57;72.08;99402.75;5022917;28;11577;-68
2023/01/18 11:13:41;;;;;;;;;10.00;7.50;;;;;3.75;73.43;99411.16;5022291;28;11485;-68
2023/01/18 11:16:12;;;;;;;;;11.50;10.75;;;;;3.62;72.23;99413.66;5026517;28;11483;-65
2023/01/18 11:19:02;;;;;;;;;5.00;5.00;;;;;3.58;71.66;99413.19;5010810;28;11583;-68
2023/01/18 11:21:41;;;;;;;;;9.25;6.25;;;;;3.49;72.30;99411.66;5026651;28;11495;-67
2023/01/18 11:24:15;;;;;;;;;9.00;7.00;;;;;3.50;72.35;99405.31;5014505;28;12195;-67
2023/01/18 11:26:55;;;;;;;;;7.00;7.00;;;;;3.72;72.05;99409.69;5021846;28;11530;-68
2023/01/18 11:29:26;;;;;;;;;10.00;6.50;;;;;3.86;72.01;99404.56;5025876;28;11597;-68
2023/01/18 11:31:59;;;;;;;;;6.50;6.00;;;;;3.88;71.38;99411.31;5023450;28;11462;-66
2023/01/18 11:34:30;;;;;;;;;10.00;8.25;;;;;4.04;71.70;99412.94;5027194;28;11465;-67
2023/01/18 11:36:59;;;;;;;;;10.25;7.00;;;;;4.02;71.77;99408.84;5011293;28;12184;-67
2023/01/18 11:39:32;;;;;;;;;7.25;5.00;;;;;4.07;70.99;99411.75;5021932;28;11576;-66
2023/01/18 11:42:30;;;;;;;;;9.00;5.00;;;;;4.10;70.47;99395.41;5016221;28;11610;-66
2023/01/18 11:44:56;;;;;;;;;8.50;7.50;;;;;4.11;70.73;99407.72;5013625;28;11502;-67
2023/01/18 11:47:34;;;;;;;;;7.25;6.00;;;;;4.13;70.64;99411.84;5044515;28;11464;-67
2023/01/18 11:50:14;;;;;;;;;5.00;5.00;;;;;4.14;71.47;99413.47;5024448;28;11437;-67
2023/01/18 11:52:55;;;;;;;;;8.00;5.75;;;;;4.16;71.00;99402.63;5025847;28;12253;-68
2023/01/18 11:55:33;;;;;;;;;9.75;7.50;;;;;4.28;71.09;99405.63;5020755;28;11537;-69
2023/01/18 11:58:00;;;;;;;;;7.50;7.25;;;;;4.32;70.84;99413.06;5019152;28;12255;-68
2023/01/18 12:00:40;;;;;;;;;6.25;4.00;;;;;4.34;70.75;99408.38;5016051;28;11512;-68
2023/01/18 12:03:20;;;;;;;;;5.75;5.75;;;;;4.34;70.63;99405.72;5026149;28;11516;-67
2023/01/18 12:05:53;;;;;;;;;8.25;6.00;;;;;4.37;70.42;99418.63;5021710;28;11438;-67
2023/01/18 12:08:44;;;;;;;;;7.75;6.50;;;;;4.33;71.97;99417.34;5027679;28;11645;-68
2023/01/18 12:11:38;;;;;;;;;4.25;4.00;;;;;4.40;71.83;99434.25;5018896;28;12409;-67
2023/01/18 12:14:38;;;;;;;;;4.00;4.00;;;;;4.27;70.53;99420.78;5010661;28;11503;-68
2023/01/18 12:17:42;;;;;;;;;1.00;1.00;;;;;4.13;70.95;99426.97;5021701;28;12262;-67
2023/01/18 12:20:45;;;;;;;;;2.25;2.25;;;;;4.04;71.95;99434.25;5027628;28;12168;-67
2023/01/18 12:23:47;;;;;;;;;1.00;1.00;;;;;3.93;71.72;99438.22;5043966;28;11102;-66
2023/01/18 12:26:45;;;;;;;;;1.25;1.25;;;;;3.81;72.48;99439.72;4977562;28;11545;-67
2023/01/18 12:29:36;;;;;;;;;2.50;0.75;;;;;3.78;72.65;99441.91;5017181;28;11432;-67